sensor_id;sensor_type;location;lat;lon;timestamp;pressure;altitude;pressure_sealevel;temperature;humidity
72330;BME280;69154;52.076;5.110;2023-07-29T00:00:30;100751.27;;;23.82;26.93
72330;BME280;69154;52.076;5.110;2023-07-29T00:02:55;100750.09;;;23.08;27.19
72330;BME280;69154;52.076;5.110;2023-07-29T00:05:21;100741.18;;;24.21;26.49
72330;BME280;69154;52.076;5.110;2023-07-29T00:07:47;100737.91;;;24.59;26.24
72330;BME280;69154;52.076;5.110;2023-07-29T00:10:13;100738.19;;;24.32;26.51
72330;BME280;69154;52.076;5.110;2023-07-29T00:12:38;100739.68;;;24.68;26.28
72330;BME280;69154;52.076;5.110;2023-07-29T00:15:05;100732.71;;;23.19;26.91
72330;BME280;69154;52.076;5.110;2023-07-29T00:17:30;100726.59;;;23.30;26.83
72330;BME280;69154;52.076;5.110;2023-07-29T00:19:56;100719.38;;;23.74;26.10
72330;BME280;69154;52.076;5.110;2023-07-29T00:22:22;100719.41;;;24.48;25.84
72330;BME280;69154;52.076;5.110;2023-07-29T00:24:51;100723.84;;;24.48;26.12
72330;BME280;69154;52.076;5.110;2023-07-29T00:27:13;100734.61;;;23.82;26.48
72330;BME280;69154;52.076;5.110;2023-07-29T00:29:39;100738.57;;;24.25;26.75
72330;BME280;69154;52.076;5.110;2023-07-29T00:32:05;100743.03;;;23.56;26.82
72330;BME280;69154;52.076;5.110;2023-07-29T00:34:31;100740.14;;;23.81;27.31
72330;BME280;69154;52.076;5.110;2023-07-29T00:36:56;100735.63;;;23.07;28.07
72330;BME280;69154;52.076;5.110;2023-07-29T00:39:23;100728.44;;;23.53;27.50
72330;BME280;69154;52.076;5.110;2023-07-29T00:41:48;100726.72;;;22.96;28.22
72330;BME280;69154;52.076;5.110;2023-07-29T00:44:14;100720.93;;;22.70;28.19
72330;BME280;69154;52.076;5.110;2023-07-29T00:46:40;100712.26;;;22.77;28.25
72330;BME280;69154;52.076;5.110;2023-07-29T00:49:05;100713.26;;;22.36;28.29
72330;BME280;69154;52.076;5.110;2023-07-29T00:51:31;100708.07;;;22.16;29.23
72330;BME280;69154;52.076;5.110;2023-07-29T00:53:57;100707.76;;;22.79;28.00
72330;BME280;69154;52.076;5.110;2023-07-29T00:56:23;100711.71;;;22.47;28.25
72330;BME280;69154;52.076;5.110;2023-07-29T00:58:49;100715.00;;;22.46;28.37
72330;BME280;69154;52.076;5.110;2023-07-29T01:01:14;100710.92;;;21.37;29.73
72330;BME280;69154;52.076;5.110;2023-07-29T01:03:40;100712.20;;;21.47;30.81
72330;BME280;69154;52.076;5.110;2023-07-29T01:06:12;100713.70;;;20.64;30.77
72330;BME280;69154;52.076;5.110;2023-07-29T01:08:38;100707.28;;;20.82;31.60
72330;BME280;69154;52.076;5.110;2023-07-29T01:11:03;100706.70;;;19.90;32.09
72330;BME280;69154;52.076;5.110;2023-07-29T01:13:33;100707.21;;;19.41;33.23
72330;BME280;69154;52.076;5.110;2023-07-29T01:15:54;100706.41;;;19.53;33.30
72330;BME280;69154;52.076;5.110;2023-07-29T01:18:20;100710.43;;;18.06;34.49
72330;BME280;69154;52.076;5.110;2023-07-29T01:20:42;100703.56;;;20.28;32.66
72330;BME280;69154;52.076;5.110;2023-07-29T01:23:06;100703.93;;;20.58;31.86
72330;BME280;69154;52.076;5.110;2023-07-29T01:25:32;100707.04;;;18.76;34.49
72330;BME280;69154;52.076;5.110;2023-07-29T01:27:57;100701.30;;;19.39;33.06
72330;BME280;69154;52.076;5.110;2023-07-29T01:30:30;100701.25;;;18.28;34.80
72330;BME280;69154;52.076;5.110;2023-07-29T01:32:53;100700.46;;;20.24;32.72
72330;BME280;69154;52.076;5.110;2023-07-29T01:35:19;100701.13;;;19.01;34.07
72330;BME280;69154;52.076;5.110;2023-07-29T01:37:41;100697.37;;;20.16;33.19
72330;BME280;69154;52.076;5.110;2023-07-29T01:40:09;100699.00;;;20.49;31.66
72330;BME280;69154;52.076;5.110;2023-07-29T01:42:32;100697.56;;;21.58;31.10
72330;BME280;69154;52.076;5.110;2023-07-29T01:44:58;100696.59;;;19.78;32.00
72330;BME280;69154;52.076;5.110;2023-07-29T01:47:24;100693.33;;;20.83;30.96
72330;BME280;69154;52.076;5.110;2023-07-29T01:49:50;100690.93;;;20.78;31.12
72330;BME280;69154;52.076;5.110;2023-07-29T01:52:20;100692.28;;;21.12;30.79
72330;BME280;69154;52.076;5.110;2023-07-29T01:54:41;100689.09;;;21.53;30.57
72330;BME280;69154;52.076;5.110;2023-07-29T01:57:07;100687.94;;;21.08;30.44
72330;BME280;69154;52.076;5.110;2023-07-29T01:59:32;100685.44;;;20.99;30.92
72330;BME280;69154;52.076;5.110;2023-07-29T02:01:58;100683.42;;;20.40;31.20
72330;BME280;69154;52.076;5.110;2023-07-29T02:04:24;100679.78;;;20.93;31.14
72330;BME280;69154;52.076;5.110;2023-07-29T02:06:50;100683.25;;;20.06;31.54
72330;BME280;69154;52.076;5.110;2023-07-29T02:09:16;100681.54;;;20.37;31.78
72330;BME280;69154;52.076;5.110;2023-07-29T02:11:42;100674.02;;;20.10;32.27
72330;BME280;69154;52.076;5.110;2023-07-29T02:14:07;100672.63;;;17.35;34.31
72330;BME280;69154;52.076;5.110;2023-07-29T02:16:33;100677.28;;;19.34;33.41
72330;BME280;69154;52.076;5.110;2023-07-29T02:18:59;100677.38;;;19.81;32.55
72330;BME280;69154;52.076;5.110;2023-07-29T02:21:25;100683.42;;;18.81;34.07
72330;BME280;69154;52.076;5.110;2023-07-29T02:23:51;100684.56;;;18.91;33.32
72330;BME280;69154;52.076;5.110;2023-07-29T02:26:17;100676.26;;;19.44;32.79
72330;BME280;69154;52.076;5.110;2023-07-29T02:28:43;100670.22;;;19.90;32.09
72330;BME280;69154;52.076;5.110;2023-07-29T02:31:14;100672.04;;;20.04;31.00
72330;BME280;69154;52.076;5.110;2023-07-29T02:33:34;100670.74;;;20.24;31.32
72330;BME280;69154;52.076;5.110;2023-07-29T02:36:00;100664.21;;;19.23;31.56
72330;BME280;69154;52.076;5.110;2023-07-29T02:38:26;100664.65;;;19.89;31.76
72330;BME280;69154;52.076;5.110;2023-07-29T02:40:51;100667.20;;;19.91;31.22
72330;BME280;69154;52.076;5.110;2023-07-29T02:43:17;100662.90;;;19.66;31.69
72330;BME280;69154;52.076;5.110;2023-07-29T02:45:44;100667.23;;;18.69;32.92
72330;BME280;69154;52.076;5.110;2023-07-29T02:48:09;100664.20;;;18.53;31.96
72330;BME280;69154;52.076;5.110;2023-07-29T02:50:35;100663.94;;;21.45;30.13
72330;BME280;69154;52.076;5.110;2023-07-29T02:53:00;100667.04;;;20.35;29.90
72330;BME280;69154;52.076;5.110;2023-07-29T02:55:26;100661.37;;;21.40;29.20
72330;BME280;69154;52.076;5.110;2023-07-29T02:57:52;100662.56;;;20.75;29.93
72330;BME280;69154;52.076;5.110;2023-07-29T03:00:19;100652.76;;;21.29;30.05
72330;BME280;69154;52.076;5.110;2023-07-29T03:02:44;100645.77;;;21.23;29.86
72330;BME280;69154;52.076;5.110;2023-07-29T03:05:09;100645.49;;;21.14;28.80
72330;BME280;69154;52.076;5.110;2023-07-29T03:07:35;100645.13;;;20.56;29.30
72330;BME280;69154;52.076;5.110;2023-07-29T03:10:01;100644.20;;;20.84;29.14
72330;BME280;69154;52.076;5.110;2023-07-29T03:12:27;100645.62;;;21.98;28.56
72330;BME280;69154;52.076;5.110;2023-07-29T03:14:53;100648.08;;;19.77;29.35
72330;BME280;69154;52.076;5.110;2023-07-29T03:17:18;100648.34;;;21.42;28.84
72330;BME280;69154;52.076;5.110;2023-07-29T03:19:44;100645.99;;;19.44;30.18
72330;BME280;69154;52.076;5.110;2023-07-29T03:22:10;100653.03;;;21.08;28.79
72330;BME280;69154;52.076;5.110;2023-07-29T03:24:36;100650.51;;;21.07;28.77
72330;BME280;69154;52.076;5.110;2023-07-29T03:27:01;100651.36;;;19.78;29.74
72330;BME280;69154;52.076;5.110;2023-07-29T03:29:26;100646.16;;;18.63;31.03
72330;BME280;69154;52.076;5.110;2023-07-29T03:31:52;100650.17;;;20.53;30.04
72330;BME280;69154;52.076;5.110;2023-07-29T03:34:18;100654.40;;;20.93;29.55
72330;BME280;69154;52.076;5.110;2023-07-29T03:36:44;100646.05;;;20.87;29.80
72330;BME280;69154;52.076;5.110;2023-07-29T03:39:10;100649.11;;;20.95;29.59
72330;BME280;69154;52.076;5.110;2023-07-29T03:41:36;100655.39;;;19.16;31.54
72330;BME280;69154;52.076;5.110;2023-07-29T03:44:01;100660.29;;;18.49;31.26
72330;BME280;69154;52.076;5.110;2023-07-29T03:46:27;100660.74;;;19.23;31.35
72330;BME280;69154;52.076;5.110;2023-07-29T03:48:53;100656.74;;;18.48;31.04
72330;BME280;69154;52.076;5.110;2023-07-29T03:51:19;100657.15;;;19.57;30.79
72330;BME280;69154;52.076;5.110;2023-07-29T03:53:45;100656.98;;;20.46;30.15
72330;BME280;69154;52.076;5.110;2023-07-29T03:56:11;100664.57;;;18.30;31.26
72330;BME280;69154;52.076;5.110;2023-07-29T03:58:36;100667.00;;;19.38;31.18
72330;BME280;69154;52.076;5.110;2023-07-29T04:01:02;100666.75;;;19.48;30.12
72330;BME280;69154;52.076;5.110;2023-07-29T04:03:28;100663.16;;;19.10;30.69
72330;BME280;69154;52.076;5.110;2023-07-29T04:05:54;100662.16;;;18.10;30.90
72330;BME280;69154;52.076;5.110;2023-07-29T04:08:20;100651.67;;;18.78;31.23
72330;BME280;69154;52.076;5.110;2023-07-29T04:10:46;100651.52;;;19.98;30.68
72330;BME280;69154;52.076;5.110;2023-07-29T04:13:12;100658.62;;;19.48;30.52
72330;BME280;69154;52.076;5.110;2023-07-29T04:15:38;100664.37;;;20.13;31.12
72330;BME280;69154;52.076;5.110;2023-07-29T04:18:03;100664.35;;;17.85;32.73
72330;BME280;69154;52.076;5.110;2023-07-29T04:20:29;100664.59;;;19.63;32.24
72330;BME280;69154;52.076;5.110;2023-07-29T04:22:55;100661.08;;;19.67;31.39
72330;BME280;69154;52.076;5.110;2023-07-29T04:25:20;100658.09;;;19.44;32.30
72330;BME280;69154;52.076;5.110;2023-07-29T04:27:46;100665.28;;;19.11;32.76
72330;BME280;69154;52.076;5.110;2023-07-29T04:30:12;100670.32;;;19.14;32.59
72330;BME280;69154;52.076;5.110;2023-07-29T04:32:38;100667.22;;;18.55;34.19
72330;BME280;69154;52.076;5.110;2023-07-29T04:35:05;100664.56;;;18.77;33.13
72330;BME280;69154;52.076;5.110;2023-07-29T04:37:30;100668.55;;;19.19;33.31
72330;BME280;69154;52.076;5.110;2023-07-29T04:39:55;100663.92;;;17.76;33.82
72330;BME280;69154;52.076;5.110;2023-07-29T04:42:21;100659.51;;;18.05;34.31
72330;BME280;69154;52.076;5.110;2023-07-29T04:44:47;100659.14;;;18.15;34.61
72330;BME280;69154;52.076;5.110;2023-07-29T04:47:13;100658.48;;;17.66;34.55
72330;BME280;69154;52.076;5.110;2023-07-29T04:49:39;100659.77;;;18.43;34.26
72330;BME280;69154;52.076;5.110;2023-07-29T04:52:06;100666.92;;;17.70;35.08
72330;BME280;69154;52.076;5.110;2023-07-29T04:54:31;100675.94;;;19.47;33.02
72330;BME280;69154;52.076;5.110;2023-07-29T04:56:56;100675.48;;;19.12;32.59
72330;BME280;69154;52.076;5.110;2023-07-29T04:59:22;100673.11;;;19.91;31.89
72330;BME280;69154;52.076;5.110;2023-07-29T05:01:48;100672.17;;;19.42;32.33
72330;BME280;69154;52.076;5.110;2023-07-29T05:04:19;100681.61;;;19.33;32.26
72330;BME280;69154;52.076;5.110;2023-07-29T05:06:39;100687.31;;;18.86;33.51
72330;BME280;69154;52.076;5.110;2023-07-29T05:09:13;100685.53;;;18.65;33.02
72330;BME280;69154;52.076;5.110;2023-07-29T05:11:31;100687.16;;;20.19;32.04
72330;BME280;69154;52.076;5.110;2023-07-29T05:13:57;100683.75;;;19.01;32.44
72330;BME280;69154;52.076;5.110;2023-07-29T05:16:23;100678.06;;;19.54;32.76
72330;BME280;69154;52.076;5.110;2023-07-29T05:18:49;100674.99;;;19.95;32.42
72330;BME280;69154;52.076;5.110;2023-07-29T05:21:14;100678.84;;;20.02;31.54
72330;BME280;69154;52.076;5.110;2023-07-29T05:23:40;100680.44;;;20.35;31.72
72330;BME280;69154;52.076;5.110;2023-07-29T05:26:06;100685.19;;;18.41;33.14
72330;BME280;69154;52.076;5.110;2023-07-29T05:28:32;100689.11;;;19.35;33.82
72330;BME280;69154;52.076;5.110;2023-07-29T05:31:00;100689.29;;;19.50;32.36
72330;BME280;69154;52.076;5.110;2023-07-29T05:33:23;100694.66;;;19.56;32.91
72330;BME280;69154;52.076;5.110;2023-07-29T05:35:49;100695.27;;;19.79;32.89
72330;BME280;69154;52.076;5.110;2023-07-29T05:38:15;100688.34;;;19.53;32.69
72330;BME280;69154;52.076;5.110;2023-07-29T05:40:40;100684.47;;;19.48;32.76
72330;BME280;69154;52.076;5.110;2023-07-29T05:43:06;100679.96;;;19.45;32.29
72330;BME280;69154;52.076;5.110;2023-07-29T05:45:32;100679.98;;;19.87;33.06
72330;BME280;69154;52.076;5.110;2023-07-29T05:47:58;100683.80;;;18.49;34.33
72330;BME280;69154;52.076;5.110;2023-07-29T05:50:23;100683.29;;;20.51;32.59
72330;BME280;69154;52.076;5.110;2023-07-29T05:52:49;100681.90;;;21.35;31.35
72330;BME280;69154;52.076;5.110;2023-07-29T05:55:15;100685.51;;;20.76;31.15
72330;BME280;69154;52.076;5.110;2023-07-29T05:57:40;100682.37;;;21.45;31.23
72330;BME280;69154;52.076;5.110;2023-07-29T06:00:07;100678.76;;;20.78;30.80
72330;BME280;69154;52.076;5.110;2023-07-29T06:02:32;100679.28;;;21.24;30.34
72330;BME280;69154;52.076;5.110;2023-07-29T06:04:58;100677.68;;;21.43;30.42
72330;BME280;69154;52.076;5.110;2023-07-29T06:07:24;100672.90;;;20.73;30.82
72330;BME280;69154;52.076;5.110;2023-07-29T06:09:49;100672.01;;;21.64;30.62
72330;BME280;69154;52.076;5.110;2023-07-29T06:12:15;100673.49;;;21.96;29.81
72330;BME280;69154;52.076;5.110;2023-07-29T06:14:41;100681.98;;;22.05;30.19
72330;BME280;69154;52.076;5.110;2023-07-29T06:17:07;100678.44;;;22.43;29.56
72330;BME280;69154;52.076;5.110;2023-07-29T06:19:32;100683.75;;;22.55;29.52
72330;BME280;69154;52.076;5.110;2023-07-29T06:21:58;100686.81;;;22.12;29.29
72330;BME280;69154;52.076;5.110;2023-07-29T06:24:23;100693.83;;;21.20;29.97
72330;BME280;69154;52.076;5.110;2023-07-29T06:26:49;100695.43;;;21.60;30.33
72330;BME280;69154;52.076;5.110;2023-07-29T06:29:15;100695.13;;;21.66;30.83
72330;BME280;69154;52.076;5.110;2023-07-29T06:31:40;100696.72;;;22.94;29.62
72330;BME280;69154;52.076;5.110;2023-07-29T06:34:06;100699.67;;;22.63;29.22
72330;BME280;69154;52.076;5.110;2023-07-29T06:36:32;100696.66;;;23.36;28.88
72330;BME280;69154;52.076;5.110;2023-07-29T06:38:57;100694.06;;;22.34;29.14
72330;BME280;69154;52.076;5.110;2023-07-29T06:41:23;100700.03;;;21.68;30.85
72330;BME280;69154;52.076;5.110;2023-07-29T06:43:49;100695.01;;;21.42;29.96
72330;BME280;69154;52.076;5.110;2023-07-29T06:46:14;100698.35;;;22.08;30.50
72330;BME280;69154;52.076;5.110;2023-07-29T06:48:40;100692.54;;;22.85;29.75
72330;BME280;69154;52.076;5.110;2023-07-29T06:51:06;100695.16;;;22.57;29.29
72330;BME280;69154;52.076;5.110;2023-07-29T06:53:31;100695.90;;;22.62;30.01
72330;BME280;69154;52.076;5.110;2023-07-29T06:55:57;100701.97;;;21.41;30.78
72330;BME280;69154;52.076;5.110;2023-07-29T06:58:23;100699.14;;;20.84;31.93
72330;BME280;69154;52.076;5.110;2023-07-29T07:00:48;100702.06;;;20.15;32.72
72330;BME280;69154;52.076;5.110;2023-07-29T07:03:14;100705.99;;;22.71;30.62
72330;BME280;69154;52.076;5.110;2023-07-29T07:05:39;100705.40;;;22.43;30.22
72330;BME280;69154;52.076;5.110;2023-07-29T07:08:05;100706.78;;;21.35;30.78
72330;BME280;69154;52.076;5.110;2023-07-29T07:10:32;100705.38;;;21.54;30.80
72330;BME280;69154;52.076;5.110;2023-07-29T07:12:57;100698.02;;;21.01;31.89
72330;BME280;69154;52.076;5.110;2023-07-29T07:15:28;100706.68;;;21.16;32.40
72330;BME280;69154;52.076;5.110;2023-07-29T07:17:48;100706.36;;;21.72;31.72
72330;BME280;69154;52.076;5.110;2023-07-29T07:20:14;100705.93;;;22.22;30.46
72330;BME280;69154;52.076;5.110;2023-07-29T07:22:40;100704.54;;;23.01;30.11
72330;BME280;69154;52.076;5.110;2023-07-29T07:25:06;100707.01;;;20.39;33.15
72330;BME280;69154;52.076;5.110;2023-07-29T07:27:31;100708.83;;;19.64;34.12
72330;BME280;69154;52.076;5.110;2023-07-29T07:29:56;100710.82;;;22.39;31.01
72330;BME280;69154;52.076;5.110;2023-07-29T07:32:22;100710.48;;;22.09;31.19
72330;BME280;69154;52.076;5.110;2023-07-29T07:34:48;100706.60;;;21.78;31.62
72330;BME280;69154;52.076;5.110;2023-07-29T07:37:14;100709.69;;;21.81;32.19
72330;BME280;69154;52.076;5.110;2023-07-29T07:39:39;100709.22;;;21.81;31.75
72330;BME280;69154;52.076;5.110;2023-07-29T07:42:05;100709.02;;;21.26;31.06
72330;BME280;69154;52.076;5.110;2023-07-29T07:44:30;100712.91;;;23.59;29.84
72330;BME280;69154;52.076;5.110;2023-07-29T07:46:56;100713.01;;;23.49;29.04
72330;BME280;69154;52.076;5.110;2023-07-29T07:49:21;100720.02;;;23.23;29.43
72330;BME280;69154;52.076;5.110;2023-07-29T07:51:47;100720.70;;;23.72;29.22
72330;BME280;69154;52.076;5.110;2023-07-29T07:54:12;100717.33;;;22.97;30.01
72330;BME280;69154;52.076;5.110;2023-07-29T07:56:38;100712.01;;;22.47;30.53
72330;BME280;69154;52.076;5.110;2023-07-29T07:59:04;100716.50;;;23.14;29.72
72330;BME280;69154;52.076;5.110;2023-07-29T08:01:34;100720.83;;;24.91;28.45
72330;BME280;69154;52.076;5.110;2023-07-29T08:03:55;100715.12;;;22.20;29.42
72330;BME280;69154;52.076;5.110;2023-07-29T08:06:20;100716.24;;;21.70;31.10
72330;BME280;69154;52.076;5.110;2023-07-29T08:08:51;100721.23;;;21.73;31.39
72330;BME280;69154;52.076;5.110;2023-07-29T08:11:12;100722.44;;;21.37;31.70
72330;BME280;69154;52.076;5.110;2023-07-29T08:13:37;100723.11;;;23.37;29.56
72330;BME280;69154;52.076;5.110;2023-07-29T08:16:03;100724.52;;;22.78;28.92
72330;BME280;69154;52.076;5.110;2023-07-29T08:18:28;100725.98;;;21.91;30.97
72330;BME280;69154;52.076;5.110;2023-07-29T08:20:54;100727.77;;;21.20;31.14
72330;BME280;69154;52.076;5.110;2023-07-29T08:23:20;100733.12;;;20.26;33.06
72330;BME280;69154;52.076;5.110;2023-07-29T08:25:51;100731.68;;;21.43;31.56
72330;BME280;69154;52.076;5.110;2023-07-29T08:28:11;100735.34;;;22.81;30.33
72330;BME280;69154;52.076;5.110;2023-07-29T08:30:36;100739.34;;;23.72;29.26
72330;BME280;69154;52.076;5.110;2023-07-29T08:33:02;100731.53;;;22.17;29.77
72330;BME280;69154;52.076;5.110;2023-07-29T08:35:28;100735.85;;;22.85;29.66
72330;BME280;69154;52.076;5.110;2023-07-29T08:37:54;100736.68;;;21.77;30.61
72330;BME280;69154;52.076;5.110;2023-07-29T08:40:27;100730.97;;;20.91;31.84
72330;BME280;69154;52.076;5.110;2023-07-29T08:42:47;100729.36;;;21.02;32.04
72330;BME280;69154;52.076;5.110;2023-07-29T08:45:12;100733.54;;;21.28;32.24
72330;BME280;69154;52.076;5.110;2023-07-29T08:47:36;100733.88;;;20.80;32.61
72330;BME280;69154;52.076;5.110;2023-07-29T08:50:03;100728.66;;;20.60;32.64
72330;BME280;69154;52.076;5.110;2023-07-29T08:52:29;100732.15;;;21.44;32.71
72330;BME280;69154;52.076;5.110;2023-07-29T08:54:54;100732.32;;;21.07;31.96
72330;BME280;69154;52.076;5.110;2023-07-29T08:57:20;100740.04;;;19.75;34.44
72330;BME280;69154;52.076;5.110;2023-07-29T08:59:45;100735.38;;;20.80;33.32
72330;BME280;69154;52.076;5.110;2023-07-29T09:02:10;100732.13;;;22.41;31.14
72330;BME280;69154;52.076;5.110;2023-07-29T09:04:35;100731.77;;;22.36;31.52
72330;BME280;69154;52.076;5.110;2023-07-29T09:07:01;100736.54;;;21.27;31.74
72330;BME280;69154;52.076;5.110;2023-07-29T09:09:27;100740.29;;;21.94;31.02
72330;BME280;69154;52.076;5.110;2023-07-29T09:11:53;100740.22;;;20.57;32.58
72330;BME280;69154;52.076;5.110;2023-07-29T09:14:19;100745.04;;;20.55;33.91
72330;BME280;69154;52.076;5.110;2023-07-29T09:16:45;100740.11;;;23.49;31.52
72330;BME280;69154;52.076;5.110;2023-07-29T09:19:10;100741.28;;;23.00;29.54
72330;BME280;69154;52.076;5.110;2023-07-29T09:21:38;100748.78;;;23.49;29.45
72330;BME280;69154;52.076;5.110;2023-07-29T09:24:03;100743.39;;;20.85;31.93
72330;BME280;69154;52.076;5.110;2023-07-29T09:26:28;100751.69;;;20.83;31.80
72330;BME280;69154;52.076;5.110;2023-07-29T09:28:53;100751.87;;;20.13;34.07
72330;BME280;69154;52.076;5.110;2023-07-29T09:31:19;100760.08;;;19.44;35.31
72330;BME280;69154;52.076;5.110;2023-07-29T09:33:44;100759.41;;;19.45;36.93
72330;BME280;69154;52.076;5.110;2023-07-29T09:36:09;100754.85;;;18.75;37.32
72330;BME280;69154;52.076;5.110;2023-07-29T09:38:34;100752.27;;;19.16;38.49
72330;BME280;69154;52.076;5.110;2023-07-29T09:40:59;100752.26;;;20.32;36.79
72330;BME280;69154;52.076;5.110;2023-07-29T09:43:26;100748.20;;;21.89;35.65
72330;BME280;69154;52.076;5.110;2023-07-29T09:45:52;100745.96;;;21.49;34.07
72330;BME280;69154;52.076;5.110;2023-07-29T09:48:20;100750.87;;;20.81;33.88
72330;BME280;69154;52.076;5.110;2023-07-29T09:50:42;100743.43;;;20.61;34.71
72330;BME280;69154;52.076;5.110;2023-07-29T09:53:07;100742.22;;;21.70;33.26
72330;BME280;69154;52.076;5.110;2023-07-29T09:55:33;100746.75;;;23.28;32.35
72330;BME280;69154;52.076;5.110;2023-07-29T09:58:00;100741.39;;;21.91;32.44
72330;BME280;69154;52.076;5.110;2023-07-29T10:00:24;100744.54;;;23.25;31.56
72330;BME280;69154;52.076;5.110;2023-07-29T10:02:50;100745.87;;;23.85;30.65
72330;BME280;69154;52.076;5.110;2023-07-29T10:05:16;100746.24;;;24.33;30.40
72330;BME280;69154;52.076;5.110;2023-07-29T10:07:42;100746.78;;;23.84;30.50
72330;BME280;69154;52.076;5.110;2023-07-29T10:10:08;100750.77;;;22.64;31.44
72330;BME280;69154;52.076;5.110;2023-07-29T10:12:34;100750.08;;;22.33;31.46
72330;BME280;69154;52.076;5.110;2023-07-29T10:14:59;100755.78;;;22.39;31.92
72330;BME280;69154;52.076;5.110;2023-07-29T10:17:24;100756.75;;;23.51;31.58
72330;BME280;69154;52.076;5.110;2023-07-29T10:19:49;100756.19;;;22.91;31.81
72330;BME280;69154;52.076;5.110;2023-07-29T10:22:20;100762.70;;;23.87;30.18
72330;BME280;69154;52.076;5.110;2023-07-29T10:24:43;100766.28;;;23.13;31.12
72330;BME280;69154;52.076;5.110;2023-07-29T10:27:06;100760.97;;;21.00;32.17
72330;BME280;69154;52.076;5.110;2023-07-29T10:29:35;100759.64;;;21.95;32.64
72330;BME280;69154;52.076;5.110;2023-07-29T10:31:57;100762.41;;;20.80;32.96
72330;BME280;69154;52.076;5.110;2023-07-29T10:34:23;100752.56;;;20.54;34.95
72330;BME280;69154;52.076;5.110;2023-07-29T10:36:49;100755.19;;;20.65;35.07
72330;BME280;69154;52.076;5.110;2023-07-29T10:39:14;100760.99;;;21.99;35.56
72330;BME280;69154;52.076;5.110;2023-07-29T10:41:57;100755.24;;;21.29;34.43
72330;BME280;69154;52.076;5.110;2023-07-29T10:44:45;100757.51;;;21.48;33.89
72330;BME280;69154;52.076;5.110;2023-07-29T10:46:35;100758.67;;;21.80;33.05
72330;BME280;69154;52.076;5.110;2023-07-29T10:48:57;100762.19;;;21.80;33.94
72330;BME280;69154;52.076;5.110;2023-07-29T10:51:26;100762.53;;;22.61;32.34
72330;BME280;69154;52.076;5.110;2023-07-29T10:53:52;100763.18;;;23.54;31.90
72330;BME280;69154;52.076;5.110;2023-07-29T10:56:25;100764.14;;;21.17;33.98
72330;BME280;69154;52.076;5.110;2023-07-29T10:58:43;100767.03;;;22.00;33.38
72330;BME280;69154;52.076;5.110;2023-07-29T11:01:13;100766.12;;;22.05;32.82
72330;BME280;69154;52.076;5.110;2023-07-29T11:03:31;100765.43;;;21.18;33.96
72330;BME280;69154;52.076;5.110;2023-07-29T11:06:04;100766.89;;;20.02;34.31
72330;BME280;69154;52.076;5.110;2023-07-29T11:08:27;100763.96;;;20.42;34.65
72330;BME280;69154;52.076;5.110;2023-07-29T11:10:59;100771.68;;;20.37;35.77
72330;BME280;69154;52.076;5.110;2023-07-29T11:13:14;100773.58;;;19.33;36.48
72330;BME280;69154;52.076;5.110;2023-07-29T11:15:40;100782.81;;;19.60;37.75
72330;BME280;69154;52.076;5.110;2023-07-29T11:18:06;100788.62;;;19.45;36.99
72330;BME280;69154;52.076;5.110;2023-07-29T11:20:33;100782.37;;;17.78;40.56
72330;BME280;69154;52.076;5.110;2023-07-29T11:22:59;100778.72;;;18.74;38.87
72330;BME280;69154;52.076;5.110;2023-07-29T11:25:24;100779.88;;;18.92;38.03
72330;BME280;69154;52.076;5.110;2023-07-29T11:27:51;100781.20;;;20.32;37.33
72330;BME280;69154;52.076;5.110;2023-07-29T11:30:15;100778.09;;;20.84;36.86
72330;BME280;69154;52.076;5.110;2023-07-29T11:32:41;100772.72;;;20.47;36.78
72330;BME280;69154;52.076;5.110;2023-07-29T11:35:08;100759.28;;;21.01;36.08
72330;BME280;69154;52.076;5.110;2023-07-29T11:37:33;100755.97;;;22.70;34.29
72330;BME280;69154;52.076;5.110;2023-07-29T11:39:57;100754.23;;;21.80;33.94
72330;BME280;69154;52.076;5.110;2023-07-29T11:42:24;100756.22;;;24.92;32.31
72330;BME280;69154;52.076;5.110;2023-07-29T11:44:49;100752.73;;;26.06;29.83
72330;BME280;69154;52.076;5.110;2023-07-29T11:47:14;100750.02;;;26.57;29.08
72330;BME280;69154;52.076;5.110;2023-07-29T11:49:40;100754.13;;;30.36;25.20
72330;BME280;69154;52.076;5.110;2023-07-29T11:52:07;100753.61;;;32.24;24.43
72330;BME280;69154;52.076;5.110;2023-07-29T11:54:31;100761.95;;;31.21;22.86
72330;BME280;69154;52.076;5.110;2023-07-29T11:56:56;100757.34;;;29.73;24.98
72330;BME280;69154;52.076;5.110;2023-07-29T11:59:22;100752.84;;;28.86;25.08
72330;BME280;69154;52.076;5.110;2023-07-29T12:01:47;100761.93;;;27.34;25.96
72330;BME280;69154;52.076;5.110;2023-07-29T12:04:13;100757.40;;;26.47;26.91
72330;BME280;69154;52.076;5.110;2023-07-29T12:06:39;100754.09;;;26.62;27.82
72330;BME280;69154;52.076;5.110;2023-07-29T12:09:04;100754.12;;;23.06;29.08
72330;BME280;69154;52.076;5.110;2023-07-29T12:11:30;100748.55;;;22.89;30.93
72330;BME280;69154;52.076;5.110;2023-07-29T12:13:55;100752.30;;;23.25;30.67
72330;BME280;69154;52.076;5.110;2023-07-29T12:16:20;100756.23;;;25.00;29.94
72330;BME280;69154;52.076;5.110;2023-07-29T12:18:46;100751.84;;;25.63;29.22
72330;BME280;69154;52.076;5.110;2023-07-29T12:21:14;100752.89;;;25.59;28.92
72330;BME280;69154;52.076;5.110;2023-07-29T12:23:37;100755.13;;;24.38;28.57
72330;BME280;69154;52.076;5.110;2023-07-29T12:26:03;100753.20;;;24.25;29.11
72330;BME280;69154;52.076;5.110;2023-07-29T12:28:29;100747.32;;;26.57;28.16
72330;BME280;69154;52.076;5.110;2023-07-29T12:30:54;100744.83;;;26.28;27.12
72330;BME280;69154;52.076;5.110;2023-07-29T12:33:37;100742.75;;;28.17;25.25
72330;BME280;69154;52.076;5.110;2023-07-29T12:35:46;100741.78;;;27.97;25.06
72330;BME280;69154;52.076;5.110;2023-07-29T12:38:11;100744.25;;;27.42;25.67
72330;BME280;69154;52.076;5.110;2023-07-29T12:40:38;100742.24;;;26.72;26.36